Time;durP1;ratioP1;P1;durP2;ratioP2;P2;SDS_P1;SDS_P2;PMS_P1;PMS_P2;Temp;Humidity;BMP_temperature;BMP_pressure;BME280_temperature;BME280_humidity;BME280_pressure;Samples;Min_cycle;Max_cycle;Signal;HPM_P1;HPM_P2
2023/12/01 00:00:31;;;;;;;1.80;1.70;;;3.40;99.90;;;;;;5005465;28;20070;-93
2023/12/01 00:02:58;;;;;;;1.70;1.60;;;3.60;99.90;;;;;;5010856;28;20132;-93
2023/12/01 00:05:24;;;;;;;1.80;1.70;;;3.50;99.90;;;;;;4999113;28;20049;-93
2023/12/01 00:07:49;;;;;;;1.75;1.65;;;3.30;99.90;;;;;;5012134;28;20052;-93
2023/12/01 00:10:15;;;;;;;1.70;1.60;;;3.50;99.90;;;;;;4995353;28;20099;-94
2023/12/01 00:12:42;;;;;;;1.70;1.60;;;3.30;99.90;;;;;;4991879;28;20266;-91
2023/12/01 00:15:08;;;;;;;1.70;1.60;;;3.30;99.90;;;;;;5028587;28;20033;-93
2023/12/01 00:17:34;;;;;;;1.70;1.60;;;3.10;99.90;;;;;;4997598;28;20054;-92
2023/12/01 00:20:00;;;;;;;1.80;1.70;;;3.40;99.90;;;;;;5008446;28;20046;-92
2023/12/01 00:22:26;;;;;;;1.90;1.80;;;3.30;99.90;;;;;;4990049;28;20056;-92
2023/12/01 00:24:51;;;;;;;1.70;1.60;;;3.30;99.90;;;;;;5002806;28;20107;-92
2023/12/01 00:27:17;;;;;;;1.75;1.65;;;3.30;99.90;;;;;;4993537;28;20049;-92
2023/12/01 00:29:43;;;;;;;1.80;1.70;;;3.50;99.90;;;;;;5000693;28;20617;-92
2023/12/01 00:32:09;;;;;;;1.80;1.70;;;3.20;99.90;;;;;;4992318;28;20037;-91
2023/12/01 00:34:35;;;;;;;1.80;1.70;;;3.20;99.90;;;;;;5007827;28;20156;-93
2023/12/01 00:37:00;;;;;;;1.70;1.60;;;3.40;99.90;;;;;;4995488;28;20041;-92
2023/12/01 00:39:26;;;;;;;1.70;1.60;;;3.10;99.90;;;;;;4993349;28;20475;-94
2023/12/01 00:41:53;;;;;;;1.80;1.70;;;3.00;99.90;;;;;;4991532;28;20116;-92
2023/12/01 00:44:19;;;;;;;1.70;1.60;;;3.20;99.90;;;;;;5008121;28;20049;-91
2023/12/01 00:46:45;;;;;;;1.80;1.70;;;3.20;99.90;;;;;;5028707;28;20037;-91
2023/12/01 00:49:11;;;;;;;1.80;1.70;;;3.40;99.90;;;;;;4999024;28;20049;-92
2023/12/01 00:51:41;;;;;;;1.70;1.60;;;3.00;99.90;;;;;;5013812;28;20042;-91
2023/12/01 00:54:07;;;;;;;1.77;1.67;;;3.30;99.90;;;;;;5014172;28;20050;-90
2023/12/01 00:56:33;;;;;;;1.70;1.60;;;3.10;99.90;;;;;;4999351;28;20049;-90
2023/12/01 00:58:59;;;;;;;1.75;1.65;;;3.20;99.90;;;;;;5014868;28;20184;-90
2023/12/01 01:01:24;;;;;;;1.90;1.80;;;3.20;99.90;;;;;;5011602;28;20111;-90
2023/12/01 01:03:51;;;;;;;1.80;1.70;;;3.00;99.90;;;;;;4998333;28;20045;-90
2023/12/01 01:06:17;;;;;;;1.92;1.83;;;2.90;99.90;;;;;;5014171;28;20048;-90
2023/12/01 01:08:43;;;;;;;2.00;1.90;;;3.10;99.90;;;;;;5030736;28;20417;-91
2023/12/01 01:11:10;;;;;;;2.00;1.90;;;2.80;99.90;;;;;;5027202;28;20037;-90
2023/12/01 01:13:36;;;;;;;2.10;2.00;;;3.10;99.90;;;;;;5011356;28;20092;-90
2023/12/01 01:16:02;;;;;;;2.20;2.10;;;2.80;99.90;;;;;;5029847;28;20117;-90
2023/12/01 01:18:28;;;;;;;2.10;2.00;;;2.90;99.90;;;;;;5009447;28;20128;-90
2023/12/01 01:20:53;;;;;;;2.30;2.20;;;3.00;99.90;;;;;;4993887;28;20479;-90
2023/12/01 01:23:19;;;;;;;2.20;2.10;;;2.70;99.90;;;;;;5014450;28;20069;-89
2023/12/01 01:25:44;;;;;;;2.20;2.10;;;2.90;99.90;;;;;;4992995;28;20602;-90
2023/12/01 01:28:11;;;;;;;2.10;2.00;;;3.00;99.90;;;;;;4998716;28;20087;-90
2023/12/01 01:30:37;;;;;;;2.20;2.10;;;2.90;99.90;;;;;;5012398;28;20096;-90
2023/12/01 01:33:03;;;;;;;2.30;2.20;;;2.70;99.90;;;;;;5020615;28;20100;-90
2023/12/01 01:35:31;;;;;;;2.30;2.20;;;3.00;99.90;;;;;;4994054;28;20484;-90
2023/12/01 01:37:58;;;;;;;2.10;2.00;;;2.70;99.90;;;;;;5008747;28;20076;-88
2023/12/01 01:40:23;;;;;;;2.10;2.00;;;2.70;99.90;;;;;;4993838;28;20072;-88
2023/12/01 01:42:49;;;;;;;2.13;2.03;;;2.70;99.90;;;;;;4994199;28;20088;-90
2023/12/01 01:45:15;;;;;;;2.00;1.90;;;2.90;99.90;;;;;;5003634;28;20072;-88
2023/12/01 01:47:41;;;;;;;2.20;2.10;;;2.70;99.90;;;;;;5004225;28;20046;-90
2023/12/01 01:50:07;;;;;;;2.10;2.00;;;2.50;99.90;;;;;;4998616;28;20038;-90
2023/12/01 01:52:36;;;;;;;2.10;2.00;;;2.80;99.90;;;;;;4982191;28;20038;-91
2023/12/01 01:55:03;;;;;;;2.00;1.90;;;2.80;99.90;;;;;;5012162;28;20464;-90
2023/12/01 01:57:34;;;;;;;2.00;1.90;;;2.80;99.90;;;;;;5001575;28;20050;-90
2023/12/01 01:59:59;;;;;;;1.83;1.73;;;2.80;99.90;;;;;;4986855;28;20049;-87
2023/12/01 02:02:25;;;;;;;1.90;1.80;;;2.50;99.90;;;;;;5007234;28;20041;-89
2023/12/01 02:04:53;;;;;;;1.95;1.85;;;2.80;99.90;;;;;;5002069;28;20157;-90
2023/12/01 02:07:25;;;;;;;2.00;1.90;;;2.60;99.90;;;;;;5010214;28;20053;-91
2023/12/01 02:09:51;;;;;;;1.85;1.75;;;2.50;99.90;;;;;;5003827;28;20257;-90
2023/12/01 02:12:17;;;;;;;1.88;1.77;;;2.70;99.90;;;;;;4993096;28;20045;-89
2023/12/01 02:14:42;;;;;;;2.00;1.90;;;2.30;99.90;;;;;;5006813;28;20045;-90
2023/12/01 02:17:08;;;;;;;1.92;1.83;;;2.60;99.90;;;;;;5007997;28;20109;-90
2023/12/01 02:19:34;;;;;;;2.00;1.90;;;2.60;99.90;;;;;;5003899;28;20038;-90
2023/12/01 02:22:00;;;;;;;2.00;1.90;;;2.50;99.90;;;;;;5012758;28;20049;-90
2023/12/01 02:24:25;;;;;;;2.00;1.90;;;2.50;99.90;;;;;;4980287;28;20119;-90
2023/12/01 02:26:51;;;;;;;2.00;1.90;;;2.70;99.90;;;;;;5013927;28;20046;-91
2023/12/01 02:29:17;;;;;;;2.00;1.90;;;2.30;99.90;;;;;;5003434;28;20045;-90
2023/12/01 02:31:42;;;;;;;1.90;1.80;;;2.20;99.90;;;;;;4998921;28;20104;-89
2023/12/01 02:34:08;;;;;;;1.90;1.80;;;2.20;99.90;;;;;;4992115;28;20041;-88
2023/12/01 02:36:34;;;;;;;2.10;2.00;;;2.20;99.90;;;;;;5009620;28;20069;-91
2023/12/01 02:38:59;;;;;;;2.10;2.00;;;2.60;99.90;;;;;;5004675;28;20131;-90
2023/12/01 02:41:25;;;;;;;2.10;2.00;;;2.70;99.90;;;;;;4995293;28;20107;-91
2023/12/01 02:43:51;;;;;;;2.10;2.00;;;2.70;99.90;;;;;;5005833;28;20042;-91
2023/12/01 02:46:22;;;;;;;2.20;2.10;;;2.60;99.90;;;;;;4991133;28;20068;-90
2023/12/01 02:48:48;;;;;;;2.05;1.95;;;2.60;99.90;;;;;;5013054;28;20103;-90
2023/12/01 02:51:14;;;;;;;2.20;2.10;;;2.30;99.90;;;;;;5012568;28;20041;-89
2023/12/01 02:53:40;;;;;;;2.00;1.90;;;2.40;99.90;;;;;;5000172;28;20034;-89
2023/12/01 02:56:06;;;;;;;2.05;1.95;;;2.10;99.90;;;;;;5005726;28;20065;-89
2023/12/01 02:58:31;;;;;;;2.20;2.10;;;2.30;99.90;;;;;;5008962;28;20136;-89
2023/12/01 03:00:57;;;;;;;2.10;2.00;;;2.30;99.90;;;;;;5010118;28;20120;-88
2023/12/01 03:03:23;;;;;;;2.00;1.90;;;2.10;99.90;;;;;;4998835;28;20041;-89
2023/12/01 03:05:49;;;;;;;2.10;2.00;;;1.80;99.90;;;;;;4995958;28;20049;-89
2023/12/01 03:08:14;;;;;;;2.20;2.10;;;2.00;99.90;;;;;;5025598;28;20057;-88
2023/12/01 03:10:40;;;;;;;2.25;2.15;;;1.90;99.90;;;;;;5009546;28;20049;-87
2023/12/01 03:13:06;;;;;;;2.30;2.20;;;2.20;99.90;;;;;;4988172;28;20127;-89
2023/12/01 03:15:31;;;;;;;2.38;2.28;;;2.10;99.90;;;;;;5006766;28;20045;-92
2023/12/01 03:17:58;;;;;;;2.25;2.15;;;2.20;99.90;;;;;;4991083;28;20041;-88
2023/12/01 03:20:27;;;;;;;2.10;2.00;;;2.00;99.90;;;;;;5010025;28;20081;-89
2023/12/01 03:22:54;;;;;;;2.15;2.05;;;2.10;99.90;;;;;;5006744;28;20044;-91
2023/12/01 03:25:20;;;;;;;2.15;2.05;;;2.10;99.90;;;;;;5001467;28;20120;-89
2023/12/01 03:27:47;;;;;;;2.38;2.28;;;2.10;99.90;;;;;;5006128;28;20183;-89
2023/12/01 03:30:15;;;;;;;2.20;2.10;;;2.20;99.90;;;;;;4996391;28;20487;-90
2023/12/01 03:32:51;;;;;;;2.10;2.00;;;2.10;99.90;;;;;;4990543;28;20049;-88
2023/12/01 03:35:21;;;;;;;2.10;2.00;;;2.10;99.90;;;;;;5009153;28;20488;-89
2023/12/01 03:37:48;;;;;;;2.00;1.90;;;2.40;99.90;;;;;;4982731;28;20046;-88
2023/12/01 03:40:14;;;;;;;2.20;2.10;;;2.20;99.90;;;;;;5002762;28;20049;-88
2023/12/01 03:42:47;;;;;;;2.10;2.00;;;2.30;99.90;;;;;;4998481;28;20496;-89
2023/12/01 03:45:13;;;;;;;;;;;2.40;99.90;;;;;;4993618;28;20049;-89
2023/12/01 03:47:41;;;;;;;2.13;2.03;;;2.30;99.90;;;;;;5005885;28;19925;-88
2023/12/01 03:50:11;;;;;;;2.20;2.10;;;2.20;99.90;;;;;;5010528;28;20045;-88
2023/12/01 03:52:42;;;;;;;2.20;2.10;;;2.00;99.90;;;;;;5028008;28;20120;-89
2023/12/01 03:55:09;;;;;;;2.10;2.00;;;2.20;99.90;;;;;;5011999;28;20038;-89
2023/12/01 03:57:35;;;;;;;2.17;2.08;;;2.10;99.90;;;;;;5009704;28;20401;-90
2023/12/01 04:00:03;;;;;;;2.10;2.00;;;2.00;99.90;;;;;;5002604;28;20091;-89
2023/12/01 04:02:29;;;;;;;2.20;2.10;;;2.10;99.90;;;;;;4986768;28;20049;-88
2023/12/01 04:04:56;;;;;;;2.20;2.10;;;1.80;99.90;;;;;;4989608;28;20049;-87
2023/12/01 04:07:22;;;;;;;2.17;2.08;;;2.00;99.90;;;;;;5000545;28;20046;-88
2023/12/01 04:09:47;;;;;;;2.20;2.10;;;1.90;99.90;;;;;;4987146;28;20051;-90
2023/12/01 04:12:13;;;;;;;2.00;1.90;;;2.10;99.90;;;;;;5000842;28;20509;-88
2023/12/01 04:14:39;;;;;;;2.10;2.00;;;2.20;99.90;;;;;;5012460;28;20112;-89
2023/12/01 04:17:10;;;;;;;2.05;1.95;;;2.20;99.90;;;;;;5005870;28;20148;-89
2023/12/01 04:19:37;;;;;;;2.00;1.90;;;1.90;99.90;;;;;;5006834;28;20053;-88
2023/12/01 04:22:04;;;;;;;2.10;2.00;;;1.90;99.90;;;;;;5009530;28;20125;-88
2023/12/01 04:24:33;;;;;;;2.15;2.05;;;2.00;99.90;;;;;;5015034;28;20045;-87
2023/12/01 04:27:00;;;;;;;2.17;2.08;;;1.80;99.90;;;;;;5004885;28;20424;-88
2023/12/01 04:29:28;;;;;;;2.25;2.15;;;1.60;99.90;;;;;;5001625;28;20050;-88
2023/12/01 04:31:53;;;;;;;2.35;2.25;;;1.70;99.90;;;;;;5023186;28;20046;-88
2023/12/01 04:34:20;;;;;;;2.22;2.13;;;1.90;99.90;;;;;;4987329;28;20045;-87
2023/12/01 04:36:47;;;;;;;2.17;2.08;;;1.70;99.90;;;;;;4997443;28;20041;-88
2023/12/01 04:39:14;;;;;;;2.13;2.03;;;1.80;99.90;;;;;;5029780;28;20119;-88
2023/12/01 04:41:40;;;;;;;2.33;2.22;;;1.50;99.90;;;;;;5009806;28;20080;-87
2023/12/01 04:44:06;;;;;;;2.33;2.22;;;1.80;99.90;;;;;;5015782;28;20080;-89
2023/12/01 04:46:31;;;;;;;2.28;2.17;;;1.90;99.90;;;;;;4991413;28;20070;-88
2023/12/01 04:48:57;;;;;;;2.20;2.10;;;1.70;99.90;;;;;;5006251;28;20112;-88
2023/12/01 04:51:23;;;;;;;2.13;2.03;;;1.60;99.90;;;;;;5022097;28;20091;-88
2023/12/01 04:53:49;;;;;;;2.00;1.90;;;1.70;99.90;;;;;;5002565;28;20041;-86
2023/12/01 04:56:15;;;;;;;2.20;2.10;;;1.40;99.90;;;;;;5008357;28;20096;-86
2023/12/01 04:58:41;;;;;;;2.30;2.20;;;1.40;99.90;;;;;;4997098;28;20048;-87
2023/12/01 05:01:07;;;;;;;2.45;2.35;;;1.40;99.90;;;;;;4996775;28;20137;-85
2023/12/01 05:03:32;;;;;;;2.60;2.50;;;1.40;99.90;;;;;;5007277;28;20041;-86
2023/12/01 05:05:58;;;;;;;3.05;2.85;;;1.50;99.90;;;;;;4987739;28;20042;-86
2023/12/01 05:08:27;;;;;;;3.08;2.88;;;1.60;99.90;;;;;;4989711;28;20085;-85
2023/12/01 05:10:56;;;;;;;2.90;2.70;;;1.60;99.90;;;;;;5011894;28;20108;-86
2023/12/01 05:13:21;;;;;;;2.80;2.60;;;1.40;99.90;;;;;;4991198;28;20141;-86
2023/12/01 05:15:47;;;;;;;3.20;3.00;;;1.30;99.90;;;;;;5004022;28;20132;-87
2023/12/01 05:18:13;;;;;;;3.40;3.20;;;1.30;99.90;;;;;;4990451;28;20053;-87
2023/12/01 05:20:40;;;;;;;3.90;3.70;;;1.40;99.90;;;;;;4998466;28;20053;-86
2023/12/01 05:23:09;;;;;;;3.67;3.47;;;1.30;99.90;;;;;;5004394;28;20053;-87
2023/12/01 05:25:37;;;;;;;3.60;3.40;;;1.40;99.90;;;;;;5023991;28;20037;-87
2023/12/01 05:28:05;;;;;;;3.50;3.30;;;1.40;99.90;;;;;;4990236;28;20128;-87
2023/12/01 05:30:33;;;;;;;3.40;3.20;;;1.30;99.90;;;;;;5001972;28;20048;-86
2023/12/01 05:32:59;;;;;;;3.22;3.03;;;1.60;99.90;;;;;;5011239;28;20049;-85
2023/12/01 05:35:25;;;;;;;3.00;2.80;;;1.40;99.90;;;;;;5003389;28;20481;-85
2023/12/01 05:37:56;;;;;;;3.33;3.13;;;1.30;99.90;;;;;;4990073;28;20061;-85
2023/12/01 05:40:26;;;;;;;3.75;3.55;;;1.30;99.90;;;;;;5022409;28;20058;-84
2023/12/01 05:42:53;;;;;;;3.85;3.65;;;1.30;99.90;;;;;;5020257;28;20151;-84
2023/12/01 05:45:23;;;;;;;3.50;3.30;;;1.30;99.90;;;;;;5004847;28;20694;-84
2023/12/01 05:47:52;;;;;;;3.40;3.20;;;1.30;99.90;;;;;;5011484;28;20060;-85
2023/12/01 05:50:31;;;;;;;3.70;3.50;;;1.40;99.90;;;;;;4995797;28;20050;-84
2023/12/01 05:52:58;;;;;;;3.40;3.20;;;1.60;99.90;;;;;;4980382;28;20511;-84
2023/12/01 05:55:29;;;;;;;3.42;3.22;;;1.40;99.90;;;;;;5008063;28;20075;-84
2023/12/01 05:58:09;;;;;;;3.25;3.05;;;1.60;99.90;;;;;;4991669;28;20053;-85
2023/12/01 06:00:35;;;;;;;3.00;2.80;;;1.60;99.90;;;;;;5005449;28;20053;-85
2023/12/01 06:03:06;;;;;;;3.10;2.90;;;1.60;99.90;;;;;;5007349;28;20046;-84
2023/12/01 06:05:32;;;;;;;2.90;2.70;;;1.70;99.90;;;;;;4991265;28;20050;-85
2023/12/01 06:08:00;;;;;;;2.85;2.65;;;1.50;99.90;;;;;;5006194;28;20053;-85
2023/12/01 06:10:27;;;;;;;2.78;2.60;;;1.60;99.90;;;;;;5002305;28;20410;-84
2023/12/01 06:12:54;;;;;;;2.90;2.70;;;1.40;99.90;;;;;;5006305;28;20491;-84
2023/12/01 06:15:20;;;;;;;5.55;5.25;;;1.40;99.90;;;;;;5000470;28;20129;-84
2023/12/01 06:17:50;;;;;;;2.95;2.75;;;1.40;99.90;;;;;;5002953;28;20140;-84
2023/12/01 06:20:18;;;;;;;2.50;2.40;;;1.40;99.90;;;;;;5002715;28;20046;-83
2023/12/01 06:22:57;;;;;;;2.97;2.78;;;1.10;99.90;;;;;;4996678;28;20053;-83
2023/12/01 06:25:27;;;;;;;3.20;3.00;;;1.30;99.90;;;;;;4997801;28;20042;-84
2023/12/01 06:27:58;;;;;;;3.60;3.40;;;1.20;99.90;;;;;;5001279;28;20836;-84
2023/12/01 06:30:25;;;;;;;3.60;3.40;;;1.30;99.90;;;;;;5022021;28;20049;-83
2023/12/01 06:32:51;;;;;;;10.88;10.02;;;1.30;99.90;;;;;;4998398;28;20084;-83
2023/12/01 06:35:19;;;;;;;3.30;3.10;;;1.30;99.90;;;;;;5020716;28;20136;-84
2023/12/01 06:37:45;;;;;;;3.33;3.13;;;1.20;99.90;;;;;;5006861;28;20123;-83
2023/12/01 06:40:13;;;;;;;3.63;3.42;;;1.10;99.90;;;;;;5007033;28;20179;-84
2023/12/01 06:42:53;;;;;;;3.47;3.28;;;1.00;99.90;;;;;;4996651;28;20499;-84
2023/12/01 06:45:26;;;;;;;3.70;3.50;;;1.00;99.90;;;;;;5008250;28;20049;-83
2023/12/01 06:47:53;;;;;;;4.55;4.25;;;0.90;99.90;;;;;;5003746;28;20061;-83
2023/12/01 06:50:20;;;;;;;3.80;3.60;;;1.20;99.90;;;;;;5022854;28;20060;-83
2023/12/01 06:52:48;;;;;;;4.38;4.07;;;0.90;99.90;;;;;;5004500;28;20503;-84
2023/12/01 06:55:14;;;;;;;4.65;4.35;;;0.90;99.90;;;;;;4996162;28;20415;-84
2023/12/01 06:57:44;;;;;;;4.63;4.32;;;0.90;99.90;;;;;;5006466;28;20049;-83
2023/12/01 07:00:29;;;;;;;4.30;4.00;;;1.10;99.90;;;;;;5010632;28;20053;-84
2023/12/01 07:03:04;;;;;;;4.20;3.90;;;1.10;99.90;;;;;;5007275;28;20045;-84
2023/12/01 07:05:31;;;;;;;4.28;3.97;;;1.00;99.90;;;;;;5008046;28;20292;-83
2023/12/01 07:07:58;;;;;;;4.28;3.97;;;0.90;99.90;;;;;;4983841;28;20450;-84
2023/12/01 07:10:24;;;;;;;4.35;4.05;;;0.80;99.90;;;;;;5003314;28;20445;-84
2023/12/01 07:12:52;;;;;;;4.15;3.85;;;0.90;99.90;;;;;;5003176;28;20049;-84
2023/12/01 07:15:22;;;;;;;4.55;4.25;;;0.70;99.90;;;;;;4998857;28;20049;-85
2023/12/01 07:17:52;;;;;;;4.45;4.15;;;0.70;99.90;;;;;;4999754;28;20077;-85
2023/12/01 07:20:18;;;;;;;4.63;4.32;;;0.60;99.90;;;;;;5023747;28;20144;-85
2023/12/01 07:22:49;;;;;;;4.78;4.47;;;0.80;99.90;;;;;;5006825;28;20788;-84
2023/12/01 07:25:22;;;;;;;4.85;4.55;;;0.90;99.90;;;;;;5007698;28;20092;-85
2023/12/01 07:27:52;;;;;;;4.68;4.38;;;0.80;99.90;;;;;;5007425;28;20057;-84
2023/12/01 07:30:18;;;;;;;4.55;4.25;;;0.70;99.90;;;;;;5006869;28;20132;-84
2023/12/01 07:32:48;;;;;;;4.65;4.35;;;0.90;99.90;;;;;;5005548;28;20049;-83
2023/12/01 07:35:14;;;;;;;4.65;4.35;;;0.80;99.90;;;;;;4998293;28;20077;-83
2023/12/01 07:37:42;;;;;;;4.35;4.05;;;0.80;99.90;;;;;;4994160;28;20607;-85
2023/12/01 07:40:11;;;;;;;4.40;4.10;;;0.80;99.90;;;;;;5018125;28;20111;-84
2023/12/01 07:42:38;;;;;;;4.18;3.88;;;0.70;99.90;;;;;;5007017;28;20069;-84
2023/12/01 07:45:08;;;;;;;3.92;3.70;;;0.80;99.90;;;;;;5004539;28;20041;-84
2023/12/01 07:47:34;;;;;;;4.03;3.78;;;0.90;99.90;;;;;;5005789;28;20546;-84
2023/12/01 07:49:59;;;;;;;4.03;3.78;;;0.90;99.90;;;;;;5006290;28;20124;-82
2023/12/01 07:52:25;;;;;;;3.75;3.55;;;0.70;99.90;;;;;;5006593;28;20041;-83
2023/12/01 07:54:51;;;;;;;4.15;3.85;;;0.80;99.90;;;;;;5004825;28;20049;-83
2023/12/01 07:57:18;;;;;;;4.00;3.78;;;0.90;99.90;;;;;;4995850;28;20056;-84
2023/12/01 07:59:43;;;;;;;3.83;3.63;;;1.00;99.90;;;;;;4998253;28;20060;-84
2023/12/01 08:02:09;;;;;;;4.15;3.85;;;0.60;99.90;;;;;;4984329;28;20046;-84
2023/12/01 08:04:35;;;;;;;4.18;3.88;;;0.90;99.90;;;;;;5005732;28;20557;-83
2023/12/01 08:07:01;;;;;;;3.40;3.20;;;1.00;99.90;;;;;;5022121;28;20045;-85
2023/12/01 08:09:31;;;;;;;3.33;3.13;;;0.60;99.90;;;;;;5007327;28;20132;-84
2023/12/01 08:11:58;;;;;;;3.67;3.47;;;0.60;99.90;;;;;;4998638;28;20058;-84
2023/12/01 08:14:25;;;;;;;3.72;3.53;;;0.50;99.90;;;;;;4999361;28;20056;-84
2023/12/01 08:16:52;;;;;;;3.80;3.60;;;0.70;99.90;;;;;;4991867;28;20508;-83
2023/12/01 08:19:17;;;;;;;3.55;3.35;;;0.70;99.90;;;;;;4995551;28;20072;-84
2023/12/01 08:21:44;;;;;;;3.63;3.42;;;0.60;99.90;;;;;;5008703;28;20503;-83
2023/12/01 08:24:13;;;;;;;3.78;3.58;;;0.50;99.90;;;;;;5011497;28;20191;-83
2023/12/01 08:26:39;;;;;;;3.90;3.70;;;0.60;99.90;;;;;;5006919;28;20130;-84
2023/12/01 08:29:05;;;;;;;4.20;3.90;;;0.80;99.90;;;;;;5024564;28;20045;-83
2023/12/01 08:31:31;;;;;;;4.15;3.85;;;0.80;99.90;;;;;;5011317;28;20048;-84
2023/12/01 08:33:57;;;;;;;3.70;3.50;;;1.30;99.90;;;;;;5002701;28;20055;-83
2023/12/01 08:36:24;;;;;;;3.75;3.55;;;1.00;99.90;;;;;;5005006;28;20132;-82
2023/12/01 08:38:50;;;;;;;4.15;3.85;;;1.00;99.90;;;;;;5006186;28;20045;-83
2023/12/01 08:41:16;;;;;;;3.50;3.30;;;1.10;99.90;;;;;;5006633;28;20045;-84
2023/12/01 08:43:41;;;;;;;3.65;3.45;;;0.80;99.90;;;;;;5007829;28;20550;-82
2023/12/01 08:46:07;;;;;;;3.63;3.42;;;0.90;99.90;;;;;;4995078;28;20081;-85
2023/12/01 08:48:33;;;;;;;3.60;3.40;;;0.90;99.90;;;;;;4998248;28;20740;-83
2023/12/01 08:50:58;;;;;;;3.38;3.17;;;0.70;99.90;;;;;;4992125;28;20053;-83
2023/12/01 08:53:24;;;;;;;3.60;3.40;;;0.70;99.90;;;;;;5002884;28;20049;-84
2023/12/01 08:55:50;;;;;;;3.67;3.47;;;0.70;99.90;;;;;;5022827;28;20450;-84
2023/12/01 08:58:19;;;;;;;3.67;3.47;;;1.00;99.90;;;;;;4978427;28;20065;-85
2023/12/01 09:00:44;;;;;;;3.35;3.15;;;1.20;99.90;;;;;;4988794;28;20168;-86
2023/12/01 09:03:10;;;;;;;3.65;3.45;;;0.90;99.90;;;;;;4994193;28;20124;-83
2023/12/01 09:05:36;;;;;;;3.70;3.50;;;1.00;99.90;;;;;;4992687;28;20097;-81
2023/12/01 09:08:04;;;;;;;3.85;3.65;;;1.10;99.90;;;;;;5003089;28;20535;-87
2023/12/01 09:10:30;;;;;;;3.60;3.40;;;1.20;99.90;;;;;;5001522;28;20164;-86
2023/12/01 09:12:55;;;;;;;3.63;3.42;;;1.40;99.90;;;;;;5006910;28;20132;-86
2023/12/01 09:15:21;;;;;;;3.70;3.50;;;1.20;99.90;;;;;;4998138;28;20282;-85
2023/12/01 09:17:47;;;;;;;3.45;3.25;;;1.00;99.90;;;;;;4994744;28;20196;-84
2023/12/01 09:20:13;;;;;;;3.50;3.30;;;1.10;99.90;;;;;;5001872;28;20056;-84
2023/12/01 09:22:38;;;;;;;3.33;3.13;;;1.30;99.90;;;;;;5001015;28;20045;-85
2023/12/01 09:25:04;;;;;;;3.42;3.22;;;1.20;99.90;;;;;;4984158;28;20048;-89
2023/12/01 09:27:30;;;;;;;3.47;3.28;;;1.20;99.90;;;;;;5022000;28;20119;-85
2023/12/01 09:29:56;;;;;;;3.40;3.20;;;1.10;99.90;;;;;;5001223;28;20057;-86
2023/12/01 09:32:21;;;;;;;3.55;3.35;;;1.00;99.90;;;;;;5000371;28;20077;-90
2023/12/01 09:34:47;;;;;;;6.85;6.45;;;1.00;99.90;;;;;;5000007;28;20041;-91
2023/12/01 09:37:13;;;;;;;3.58;3.38;;;1.00;99.90;;;;;;5017828;28;20497;-85
2023/12/01 09:39:40;;;;;;;3.55;3.35;;;1.10;99.90;;;;;;5019242;28;20132;-81
2023/12/01 09:42:08;;;;;;;4.93;4.63;;;1.20;99.90;;;;;;4995044;28;20121;-86
2023/12/01 09:44:35;;;;;;;3.33;3.13;;;1.20;99.90;;;;;;4996530;28;20129;-85
2023/12/01 09:47:02;;;;;;;3.17;2.97;;;1.10;99.90;;;;;;5023545;28;20053;-89
2023/12/01 09:49:33;;;;;;;3.28;3.08;;;1.30;99.90;;;;;;4998171;28;20551;-86
2023/12/01 09:52:01;;;;;;;3.05;2.85;;;1.40;99.90;;;;;;4999159;28;20202;-86
2023/12/01 09:54:26;;;;;;;3.05;2.85;;;1.30;99.90;;;;;;4981716;28;20042;-83
2023/12/01 09:56:53;;;;;;;3.03;2.83;;;1.20;99.90;;;;;;4982216;28;20052;-81
2023/12/01 09:59:19;;;;;;;3.10;2.90;;;1.30;99.90;;;;;;5005048;28;20206;-88
2023/12/01 10:01:47;;;;;;;3.33;3.13;;;1.40;99.90;;;;;;4991683;28;20053;-86
2023/12/01 10:04:13;;;;;;;2.97;2.78;;;1.60;99.90;;;;;;5023631;28;20057;-86
2023/12/01 10:06:39;;;;;;;2.85;2.65;;;1.80;99.90;;;;;;4998822;28;20685;-88
2023/12/01 10:09:10;;;;;;;4.50;4.28;;;1.70;99.90;;;;;;4997648;28;20124;-87
2023/12/01 10:11:37;;;;;;;2.50;2.40;;;1.60;99.90;;;;;;5013989;28;20065;-85
2023/12/01 10:14:08;;;;;;;2.60;2.50;;;1.60;99.90;;;;;;5000353;28;20136;-85
2023/12/01 10:16:36;;;;;;;2.50;2.40;;;1.90;99.90;;;;;;5006742;28;20052;-86
2023/12/01 10:19:05;;;;;;;2.58;2.47;;;1.90;99.90;;;;;;5012201;28;20499;-87
2023/12/01 10:21:42;;;;;;;2.60;2.50;;;1.80;99.90;;;;;;4999814;28;20064;-87
2023/12/01 10:24:20;;;;;;;2.35;2.25;;;2.10;99.90;;;;;;5007836;28;20049;-87
2023/12/01 10:26:46;;;;;;;2.30;2.20;;;2.10;99.90;;;;;;4999081;28;20518;-90
2023/12/01 10:29:30;;;;;;;2.25;2.15;;;2.20;99.90;;;;;;5002173;28;20593;-85
2023/12/01 10:32:11;;;;;;;2.30;2.20;;;2.20;99.90;;;;;;5005810;28;20044;-87
2023/12/01 10:34:38;;;;;;;2.20;2.10;;;2.50;99.90;;;;;;4997841;28;20049;-86
2023/12/01 10:37:04;;;;;;;2.10;2.00;;;2.20;99.90;;;;;;4995579;28;20503;-82
2023/12/01 10:39:30;;;;;;;2.17;2.08;;;2.10;99.90;;;;;;4992434;28;20073;-85
2023/12/01 10:41:58;;;;;;;2.25;2.15;;;2.40;99.90;;;;;;4998849;28;20410;-87
2023/12/01 10:44:26;;;;;;;2.25;2.15;;;2.30;99.90;;;;;;4998690;28;20387;-89
2023/12/01 10:46:53;;;;;;;2.15;2.05;;;2.10;99.90;;;;;;5006417;28;20499;-94
2023/12/01 10:49:20;;;;;;;2.15;2.05;;;2.10;99.90;;;;;;5013890;28;20072;-88
2023/12/01 10:51:52;;;;;;;2.17;2.08;;;2.00;99.90;;;;;;5008075;28;20046;-90
2023/12/01 10:54:23;;;;;;;2.25;2.15;;;2.10;99.90;;;;;;5014351;28;20064;-90
2023/12/01 10:57:14;;;;;;;2.08;1.98;;;2.10;99.90;;;;;;5008575;28;20522;-90
2023/12/01 10:59:45;;;;;;;2.20;2.10;;;2.10;99.90;;;;;;5009165;28;20056;-89
2023/12/01 11:02:14;;;;;;;2.25;2.15;;;2.40;99.90;;;;;;5010005;28;20051;-89
2023/12/01 11:04:44;;;;;;;2.28;2.17;;;2.60;99.90;;;;;;5009158;28;20060;-90
2023/12/01 11:07:34;;;;;;;2.20;2.10;;;2.60;99.90;;;;;;4992250;28;20041;-86
2023/12/01 11:10:25;;;;;;;2.30;2.20;;;2.50;99.90;;;;;;5006888;28;20088;-89
2023/12/01 11:13:13;;;;;;;2.40;2.30;;;2.40;99.90;;;;;;5024974;28;20042;-91
2023/12/01 11:15:41;;;;;;;2.40;2.30;;;2.30;99.90;;;;;;4993692;28;20042;-92
2023/12/01 11:18:10;;;;;;;2.20;2.10;;;2.30;99.90;;;;;;5005100;28;20065;-89
2023/12/01 11:20:42;;;;;;;2.40;2.30;;;2.60;99.90;;;;;;5005952;28;20054;-90
2023/12/01 11:23:41;;;;;;;2.40;2.30;;;2.40;99.90;;;;;;5014563;28;20061;-94
2023/12/01 11:33:51;;;;;;;2.70;2.58;;;2.80;99.90;;;;;;4925732;28;20134;-93
2023/12/01 11:36:28;;;;;;;2.80;2.60;;;2.60;99.90;;;;;;4930210;28;20855;-86
2023/12/01 11:39:20;;;;;;;2.75;2.60;;;2.70;99.90;;;;;;4981461;28;20057;-90
2023/12/01 11:41:54;;;;;;;2.65;2.53;;;2.70;99.90;;;;;;4994835;28;20125;-92
2023/12/01 11:44:24;;;;;;;2.72;2.55;;;2.80;99.90;;;;;;4998983;28;20049;-91
2023/12/01 11:46:57;;;;;;;2.67;2.55;;;2.60;99.90;;;;;;5009797;28;20626;-92
2023/12/01 11:49:31;;;;;;;2.88;2.67;;;2.80;99.90;;;;;;5025923;28;20041;-92
2023/12/01 11:52:01;;;;;;;2.95;2.75;;;3.00;99.90;;;;;;5006732;28;20065;-89
2023/12/01 11:58:29;;;;;;;2.80;2.60;;;3.00;99.90;;;;;;4973985;28;20679;-95
2023/12/01 12:00:58;;;;;;;2.80;2.60;;;3.50;99.90;;;;;;5023113;28;20060;-93
2023/12/01 12:03:24;;;;;;;2.83;2.63;;;3.70;99.90;;;;;;5012707;28;20037;-91
2023/12/01 12:05:51;;;;;;;2.53;2.42;;;3.50;99.90;;;;;;4997149;28;20042;-92
2023/12/01 12:08:17;;;;;;;2.65;2.55;;;3.40;99.90;;;;;;5008963;28;20115;-92
2023/12/01 12:10:44;;;;;;;2.90;2.70;;;3.40;99.90;;;;;;5003003;28;20056;-92
2023/12/01 12:13:15;;;;;;;2.80;2.60;;;3.60;99.90;;;;;;5006559;28;20072;-94
2023/12/01 12:15:44;;;;;;;2.60;2.50;;;3.30;99.90;;;;;;5004690;28;20045;-93
2023/12/01 12:18:13;;;;;;;2.63;2.53;;;3.10;99.90;;;;;;5006297;28;20038;-88
2023/12/01 12:20:39;;;;;;;2.72;2.55;;;3.20;99.90;;;;;;5006363;28;20052;-91
2023/12/01 12:23:05;;;;;;;2.53;2.42;;;2.90;99.90;;;;;;4988956;28;21571;-93
2023/12/01 12:25:35;;;;;;;2.40;2.30;;;3.30;99.90;;;;;;4993419;28;20125;-93
2023/12/01 12:28:11;;;;;;;2.30;2.20;;;3.20;99.90;;;;;;5008304;28;20050;-94
2023/12/01 12:30:37;;;;;;;2.55;2.45;;;3.40;99.90;;;;;;4999948;28;20076;-93
2023/12/01 12:33:17;;;;;;;;;;;;;;;;;;;;;
2023/12/01 12:36:05;;;;;;;2.50;2.40;;;3.40;99.90;;;;;;4989403;28;20113;-94
2023/12/01 12:38:34;;;;;;;2.50;2.40;;;3.20;99.90;;;;;;4993744;28;20081;-94
2023/12/01 12:41:01;;;;;;;2.50;2.40;;;3.10;99.90;;;;;;4994660;28;20041;-91
2023/12/01 12:43:26;;;;;;;2.60;2.50;;;3.10;99.90;;;;;;5002706;28;20038;-94
2023/12/01 12:45:54;;;;;;;2.88;2.67;;;2.90;99.90;;;;;;4990891;28;20076;-94
2023/12/01 12:48:26;;;;;;;2.90;2.70;;;3.10;99.90;;;;;;5017164;28;20049;-92
2023/12/01 12:51:08;;;;;;;2.50;2.40;;;2.90;99.90;;;;;;5011815;28;20056;-94
2023/12/01 12:53:56;;;;;;;2.58;2.47;;;3.00;99.90;;;;;;5004496;28;20484;-95
2023/12/01 12:56:23;;;;;;;2.50;2.40;;;3.10;99.90;;;;;;5004664;28;20103;-89
2023/12/01 12:59:07;;;;;;;2.40;2.30;;;2.80;99.90;;;;;;5009706;28;20085;-94
2023/12/01 13:01:33;;;;;;;;;;;2.90;99.90;;;;;;5011242;28;20042;-92
2023/12/01 13:03:59;;;;;;;2.20;2.10;;;3.00;99.90;;;;;;4990257;28;19960;-91
2023/12/01 13:06:25;;;;;;;2.10;2.00;;;3.00;99.90;;;;;;5007113;28;20474;-93
2023/12/01 13:08:51;;;;;;;2.20;2.10;;;3.10;99.90;;;;;;5013274;28;20099;-94
2023/12/01 13:11:20;;;;;;;2.25;2.15;;;2.80;99.90;;;;;;5010620;28;20054;-95
2023/12/01 13:14:24;;;;;;;;;;;;;;;;;;;;;
2023/12/01 13:16:50;;;;;;;2.30;2.20;;;2.70;99.90;;;;;;5016605;28;20479;-94